sensor_id;sensor_type;location;lat;lon;timestamp;P1;durP1;ratioP1;P2;durP2;ratioP2
14052;SDS011;7101;51.600;7.310;2022-12-26T00:01:50;11.15;;;8.63;;
14052;SDS011;7101;51.600;7.310;2022-12-26T00:04:19;13.40;;;8.43;;
14052;SDS011;7101;51.600;7.310;2022-12-26T00:06:47;12.82;;;8.05;;
14052;SDS011;7101;51.600;7.310;2022-12-26T00:09:14;10.82;;;7.43;;
14052;SDS011;7101;51.600;7.310;2022-12-26T00:11:41;8.40;;;6.68;;
14052;SDS011;7101;51.600;7.310;2022-12-26T00:14:10;9.25;;;6.88;;
14052;SDS011;7101;51.600;7.310;2022-12-26T00:16:38;9.07;;;6.30;;
14052;SDS011;7101;51.600;7.310;2022-12-26T00:19:08;9.30;;;6.80;;
14052;SDS011;7101;51.600;7.310;2022-12-26T00:21:35;7.18;;;5.32;;
14052;SDS011;7101;51.600;7.310;2022-12-26T00:24:02;7.65;;;5.47;;
14052;SDS011;7101;51.600;7.310;2022-12-26T00:26:30;7.20;;;5.00;;
14052;SDS011;7101;51.600;7.310;2022-12-26T00:28:58;11.18;;;5.10;;
14052;SDS011;7101;51.600;7.310;2022-12-26T00:31:26;6.78;;;4.97;;
14052;SDS011;7101;51.600;7.310;2022-12-26T00:33:54;6.05;;;4.75;;
14052;SDS011;7101;51.600;7.310;2022-12-26T00:36:23;5.55;;;4.28;;
14052;SDS011;7101;51.600;7.310;2022-12-26T00:38:53;5.95;;;4.18;;
14052;SDS011;7101;51.600;7.310;2022-12-26T00:41:20;4.22;;;3.30;;
14052;SDS011;7101;51.600;7.310;2022-12-26T00:43:47;5.07;;;3.92;;
14052;SDS011;7101;51.600;7.310;2022-12-26T00:46:15;6.30;;;3.70;;
14052;SDS011;7101;51.600;7.310;2022-12-26T00:48:43;5.82;;;3.80;;
14052;SDS011;7101;51.600;7.310;2022-12-26T00:51:09;4.25;;;3.25;;
14052;SDS011;7101;51.600;7.310;2022-12-26T00:53:38;4.40;;;3.50;;
14052;SDS011;7101;51.600;7.310;2022-12-26T00:56:05;3.60;;;3.28;;
14052;SDS011;7101;51.600;7.310;2022-12-26T00:58:32;4.65;;;2.97;;
14052;SDS011;7101;51.600;7.310;2022-12-26T01:01:07;4.88;;;3.05;;
14052;SDS011;7101;51.600;7.310;2022-12-26T01:03:35;5.25;;;3.03;;
14052;SDS011;7101;51.600;7.310;2022-12-26T01:06:02;4.28;;;2.97;;
14052;SDS011;7101;51.600;7.310;2022-12-26T01:08:30;4.03;;;3.35;;
14052;SDS011;7101;51.600;7.310;2022-12-26T01:11:00;4.38;;;2.90;;
14052;SDS011;7101;51.600;7.310;2022-12-26T01:13:28;4.75;;;3.10;;
14052;SDS011;7101;51.600;7.310;2022-12-26T01:15:55;3.08;;;2.63;;
14052;SDS011;7101;51.600;7.310;2022-12-26T01:18:22;3.88;;;2.58;;
14052;SDS011;7101;51.600;7.310;2022-12-26T01:20:49;3.50;;;2.60;;
14052;SDS011;7101;51.600;7.310;2022-12-26T01:23:16;4.05;;;3.00;;
14052;SDS011;7101;51.600;7.310;2022-12-26T01:25:43;5.55;;;2.95;;
14052;SDS011;7101;51.600;7.310;2022-12-26T01:28:11;3.88;;;3.33;;
14052;SDS011;7101;51.600;7.310;2022-12-26T01:30:39;4.53;;;3.63;;
14052;SDS011;7101;51.600;7.310;2022-12-26T01:33:05;3.90;;;3.50;;
14052;SDS011;7101;51.600;7.310;2022-12-26T01:35:32;4.47;;;3.75;;
14052;SDS011;7101;51.600;7.310;2022-12-26T01:37:59;4.82;;;3.75;;
14052;SDS011;7101;51.600;7.310;2022-12-26T01:40:26;5.70;;;4.00;;
14052;SDS011;7101;51.600;7.310;2022-12-26T01:42:53;7.25;;;3.88;;
14052;SDS011;7101;51.600;7.310;2022-12-26T01:45:23;4.57;;;3.60;;
14052;SDS011;7101;51.600;7.310;2022-12-26T01:47:54;6.65;;;4.18;;
14052;SDS011;7101;51.600;7.310;2022-12-26T01:50:27;5.95;;;4.13;;
14052;SDS011;7101;51.600;7.310;2022-12-26T01:52:58;5.82;;;4.53;;
14052;SDS011;7101;51.600;7.310;2022-12-26T01:55:28;5.80;;;4.15;;
14052;SDS011;7101;51.600;7.310;2022-12-26T01:57:57;4.80;;;4.03;;
14052;SDS011;7101;51.600;7.310;2022-12-26T02:00:32;6.03;;;4.35;;
14052;SDS011;7101;51.600;7.310;2022-12-26T02:03:01;6.20;;;4.72;;
14052;SDS011;7101;51.600;7.310;2022-12-26T02:05:47;5.20;;;4.32;;
14052;SDS011;7101;51.600;7.310;2022-12-26T02:08:16;5.53;;;4.40;;
14052;SDS011;7101;51.600;7.310;2022-12-26T02:10:50;6.65;;;5.05;;
14052;SDS011;7101;51.600;7.310;2022-12-26T02:13:20;5.63;;;4.60;;
14052;SDS011;7101;51.600;7.310;2022-12-26T02:15:48;4.97;;;4.45;;
14052;SDS011;7101;51.600;7.310;2022-12-26T02:18:15;5.30;;;4.32;;
14052;SDS011;7101;51.600;7.310;2022-12-26T02:20:44;4.68;;;3.75;;
14052;SDS011;7101;51.600;7.310;2022-12-26T02:23:32;5.70;;;3.90;;
14052;SDS011;7101;51.600;7.310;2022-12-26T02:26:27;4.22;;;3.83;;
14052;SDS011;7101;51.600;7.310;2022-12-26T02:32:17;4.35;;;3.92;;
14052;SDS011;7101;51.600;7.310;2022-12-26T02:34:55;4.15;;;3.50;;
14052;SDS011;7101;51.600;7.310;2022-12-26T02:37:36;5.07;;;3.20;;
14052;SDS011;7101;51.600;7.310;2022-12-26T02:40:20;3.50;;;3.15;;
14052;SDS011;7101;51.600;7.310;2022-12-26T02:43:02;3.63;;;3.30;;
14052;SDS011;7101;51.600;7.310;2022-12-26T02:45:37;3.10;;;2.80;;
14052;SDS011;7101;51.600;7.310;2022-12-26T02:48:29;4.35;;;2.80;;
14052;SDS011;7101;51.600;7.310;2022-12-26T02:51:06;3.92;;;2.95;;
14052;SDS011;7101;51.600;7.310;2022-12-26T02:54:00;3.55;;;3.03;;
14052;SDS011;7101;51.600;7.310;2022-12-26T02:56:54;3.90;;;3.25;;
14052;SDS011;7101;51.600;7.310;2022-12-26T02:59:45;4.40;;;3.10;;
14052;SDS011;7101;51.600;7.310;2022-12-26T03:02:34;3.97;;;3.20;;
14052;SDS011;7101;51.600;7.310;2022-12-26T03:05:26;3.53;;;3.00;;
14052;SDS011;7101;51.600;7.310;2022-12-26T03:08:16;3.45;;;3.05;;
14052;SDS011;7101;51.600;7.310;2022-12-26T03:11:05;3.30;;;2.70;;
14052;SDS011;7101;51.600;7.310;2022-12-26T03:13:50;3.03;;;2.67;;
14052;SDS011;7101;51.600;7.310;2022-12-26T03:16:18;4.10;;;2.60;;
14052;SDS011;7101;51.600;7.310;2022-12-26T03:19:06;3.13;;;2.67;;
14052;SDS011;7101;51.600;7.310;2022-12-26T03:21:37;4.45;;;2.83;;
14052;SDS011;7101;51.600;7.310;2022-12-26T03:24:08;2.65;;;2.45;;
14052;SDS011;7101;51.600;7.310;2022-12-26T03:26:38;3.88;;;2.40;;
14052;SDS011;7101;51.600;7.310;2022-12-26T03:29:12;4.18;;;2.55;;
14052;SDS011;7101;51.600;7.310;2022-12-26T03:31:58;3.20;;;2.90;;
14052;SDS011;7101;51.600;7.310;2022-12-26T03:34:26;3.83;;;2.72;;
14052;SDS011;7101;51.600;7.310;2022-12-26T03:37:00;4.00;;;3.10;;
14052;SDS011;7101;51.600;7.310;2022-12-26T03:39:43;4.00;;;3.60;;
14052;SDS011;7101;51.600;7.310;2022-12-26T03:42:33;4.85;;;4.07;;
14052;SDS011;7101;51.600;7.310;2022-12-26T03:45:25;6.20;;;4.65;;
14052;SDS011;7101;51.600;7.310;2022-12-26T03:48:17;5.82;;;5.07;;
14052;SDS011;7101;51.600;7.310;2022-12-26T03:51:07;6.45;;;5.82;;
14052;SDS011;7101;51.600;7.310;2022-12-26T03:53:57;7.03;;;6.32;;
14052;SDS011;7101;51.600;7.310;2022-12-26T03:56:49;7.50;;;6.65;;
14052;SDS011;7101;51.600;7.310;2022-12-26T03:59:40;8.02;;;6.60;;
14052;SDS011;7101;51.600;7.310;2022-12-26T04:02:27;10.00;;;7.10;;
14052;SDS011;7101;51.600;7.310;2022-12-26T04:05:15;8.52;;;7.72;;
14052;SDS011;7101;51.600;7.310;2022-12-26T04:08:01;8.55;;;7.75;;
14052;SDS011;7101;51.600;7.310;2022-12-26T04:10:52;9.43;;;8.43;;
14052;SDS011;7101;51.600;7.310;2022-12-26T04:13:44;9.07;;;8.15;;
14052;SDS011;7101;51.600;7.310;2022-12-26T04:16:36;9.68;;;8.10;;
14052;SDS011;7101;51.600;7.310;2022-12-26T04:19:26;9.27;;;8.32;;
14052;SDS011;7101;51.600;7.310;2022-12-26T04:22:08;8.50;;;7.63;;
14052;SDS011;7101;51.600;7.310;2022-12-26T04:24:58;8.23;;;7.43;;
14052;SDS011;7101;51.600;7.310;2022-12-26T04:27:49;7.68;;;6.97;;
14052;SDS011;7101;51.600;7.310;2022-12-26T04:30:33;7.50;;;6.72;;
14052;SDS011;7101;51.600;7.310;2022-12-26T04:33:22;7.60;;;6.90;;
14052;SDS011;7101;51.600;7.310;2022-12-26T04:36:13;7.72;;;6.93;;
14052;SDS011;7101;51.600;7.310;2022-12-26T04:39:04;8.35;;;6.38;;
14052;SDS011;7101;51.600;7.310;2022-12-26T04:41:52;9.70;;;6.70;;
14052;SDS011;7101;51.600;7.310;2022-12-26T04:44:40;6.55;;;5.95;;
14052;SDS011;7101;51.600;7.310;2022-12-26T04:47:08;8.13;;;6.22;;
14052;SDS011;7101;51.600;7.310;2022-12-26T04:49:40;6.00;;;5.50;;
14052;SDS011;7101;51.600;7.310;2022-12-26T04:52:25;6.43;;;5.70;;
14052;SDS011;7101;51.600;7.310;2022-12-26T04:55:13;5.90;;;5.22;;
14052;SDS011;7101;51.600;7.310;2022-12-26T04:57:41;5.22;;;4.72;;
14052;SDS011;7101;51.600;7.310;2022-12-26T05:00:10;5.20;;;4.70;;
14052;SDS011;7101;51.600;7.310;2022-12-26T05:02:37;5.72;;;4.53;;
14052;SDS011;7101;51.600;7.310;2022-12-26T05:05:21;4.65;;;4.25;;
14052;SDS011;7101;51.600;7.310;2022-12-26T05:08:21;4.72;;;4.32;;
14052;SDS011;7101;51.600;7.310;2022-12-26T05:11:08;4.68;;;3.90;;
14052;SDS011;7101;51.600;7.310;2022-12-26T05:13:35;4.25;;;3.85;;
14052;SDS011;7101;51.600;7.310;2022-12-26T05:16:04;5.05;;;4.45;;
14052;SDS011;7101;51.600;7.310;2022-12-26T05:18:49;4.47;;;4.07;;
14052;SDS011;7101;51.600;7.310;2022-12-26T05:21:34;4.65;;;4.22;;
14052;SDS011;7101;51.600;7.310;2022-12-26T05:24:18;4.75;;;4.35;;
14052;SDS011;7101;51.600;7.310;2022-12-26T05:27:02;4.53;;;4.13;;
14052;SDS011;7101;51.600;7.310;2022-12-26T05:29:47;4.88;;;4.45;;
14052;SDS011;7101;51.600;7.310;2022-12-26T05:32:15;4.80;;;4.40;;
14052;SDS011;7101;51.600;7.310;2022-12-26T05:34:59;5.03;;;4.53;;
14052;SDS011;7101;51.600;7.310;2022-12-26T05:37:26;5.03;;;4.50;;
14052;SDS011;7101;51.600;7.310;2022-12-26T05:39:53;5.57;;;4.82;;
14052;SDS011;7101;51.600;7.310;2022-12-26T05:42:19;6.07;;;4.78;;
14052;SDS011;7101;51.600;7.310;2022-12-26T05:44:46;6.00;;;5.30;;
14052;SDS011;7101;51.600;7.310;2022-12-26T05:47:14;6.15;;;5.63;;
14052;SDS011;7101;51.600;7.310;2022-12-26T05:49:41;5.85;;;5.25;;
14052;SDS011;7101;51.600;7.310;2022-12-26T05:52:08;5.63;;;5.03;;
14052;SDS011;7101;51.600;7.310;2022-12-26T05:54:35;6.28;;;5.30;;
14052;SDS011;7101;51.600;7.310;2022-12-26T05:57:01;5.70;;;5.10;;
14052;SDS011;7101;51.600;7.310;2022-12-26T05:59:28;6.35;;;5.38;;
14052;SDS011;7101;51.600;7.310;2022-12-26T06:01:55;6.22;;;5.63;;
14052;SDS011;7101;51.600;7.310;2022-12-26T06:04:23;6.57;;;5.97;;
14052;SDS011;7101;51.600;7.310;2022-12-26T06:06:51;6.80;;;6.10;;
14052;SDS011;7101;51.600;7.310;2022-12-26T06:09:20;6.78;;;6.05;;
14052;SDS011;7101;51.600;7.310;2022-12-26T06:11:47;7.00;;;5.78;;
14052;SDS011;7101;51.600;7.310;2022-12-26T06:14:14;7.20;;;6.18;;
14052;SDS011;7101;51.600;7.310;2022-12-26T06:16:41;7.00;;;6.20;;
14052;SDS011;7101;51.600;7.310;2022-12-26T06:19:09;8.07;;;6.25;;
14052;SDS011;7101;51.600;7.310;2022-12-26T06:21:37;8.05;;;6.30;;
14052;SDS011;7101;51.600;7.310;2022-12-26T06:24:04;6.55;;;5.85;;
14052;SDS011;7101;51.600;7.310;2022-12-26T06:26:31;6.80;;;6.15;;
14052;SDS011;7101;51.600;7.310;2022-12-26T06:28:58;6.70;;;6.10;;
14052;SDS011;7101;51.600;7.310;2022-12-26T06:31:25;6.90;;;6.20;;
14052;SDS011;7101;51.600;7.310;2022-12-26T06:33:53;8.07;;;6.25;;
14052;SDS011;7101;51.600;7.310;2022-12-26T06:36:25;8.50;;;6.00;;
14052;SDS011;7101;51.600;7.310;2022-12-26T06:38:56;7.13;;;6.30;;
14052;SDS011;7101;51.600;7.310;2022-12-26T06:41:25;7.13;;;6.03;;
14052;SDS011;7101;51.600;7.310;2022-12-26T06:43:52;6.53;;;5.72;;
14052;SDS011;7101;51.600;7.310;2022-12-26T06:46:20;6.57;;;5.72;;
14052;SDS011;7101;51.600;7.310;2022-12-26T06:48:49;6.00;;;5.40;;
14052;SDS011;7101;51.600;7.310;2022-12-26T06:51:16;7.38;;;5.70;;
14052;SDS011;7101;51.600;7.310;2022-12-26T06:53:46;6.25;;;5.55;;
14052;SDS011;7101;51.600;7.310;2022-12-26T06:56:15;8.25;;;5.60;;
14052;SDS011;7101;51.600;7.310;2022-12-26T06:58:43;7.20;;;5.45;;
14052;SDS011;7101;51.600;7.310;2022-12-26T07:01:12;6.03;;;5.13;;
14052;SDS011;7101;51.600;7.310;2022-12-26T07:03:41;6.07;;;5.13;;
14052;SDS011;7101;51.600;7.310;2022-12-26T07:06:10;6.30;;;5.70;;
14052;SDS011;7101;51.600;7.310;2022-12-26T07:08:43;7.63;;;6.03;;
14052;SDS011;7101;51.600;7.310;2022-12-26T07:11:11;7.00;;;5.70;;
14052;SDS011;7101;51.600;7.310;2022-12-26T07:13:40;6.40;;;5.78;;
14052;SDS011;7101;51.600;7.310;2022-12-26T07:16:07;8.50;;;5.47;;
14052;SDS011;7101;51.600;7.310;2022-12-26T07:18:34;5.97;;;5.15;;
14052;SDS011;7101;51.600;7.310;2022-12-26T07:21:03;7.32;;;5.78;;
14052;SDS011;7101;51.600;7.310;2022-12-26T07:23:30;6.85;;;5.15;;
14052;SDS011;7101;51.600;7.310;2022-12-26T07:25:57;6.53;;;4.93;;
14052;SDS011;7101;51.600;7.310;2022-12-26T07:28:24;6.20;;;5.53;;
14052;SDS011;7101;51.600;7.310;2022-12-26T07:30:52;6.43;;;5.35;;
14052;SDS011;7101;51.600;7.310;2022-12-26T07:33:19;7.45;;;5.30;;
14052;SDS011;7101;51.600;7.310;2022-12-26T07:35:46;6.30;;;5.10;;
14052;SDS011;7101;51.600;7.310;2022-12-26T07:38:13;7.97;;;6.00;;
14052;SDS011;7101;51.600;7.310;2022-12-26T07:40:39;6.97;;;5.57;;
14052;SDS011;7101;51.600;7.310;2022-12-26T07:43:06;7.28;;;5.35;;
14052;SDS011;7101;51.600;7.310;2022-12-26T07:45:33;5.20;;;4.45;;
14052;SDS011;7101;51.600;7.310;2022-12-26T07:48:01;5.00;;;4.35;;
14052;SDS011;7101;51.600;7.310;2022-12-26T07:52:49;6.40;;;3.83;;
14052;SDS011;7101;51.600;7.310;2022-12-26T07:55:16;5.78;;;4.20;;
14052;SDS011;7101;51.600;7.310;2022-12-26T07:57:43;4.80;;;3.78;;
14052;SDS011;7101;51.600;7.310;2022-12-26T08:00:10;5.90;;;3.95;;
14052;SDS011;7101;51.600;7.310;2022-12-26T08:02:37;5.55;;;3.72;;
14052;SDS011;7101;51.600;7.310;2022-12-26T08:05:04;5.75;;;3.90;;
14052;SDS011;7101;51.600;7.310;2022-12-26T08:07:32;4.90;;;3.35;;
14052;SDS011;7101;51.600;7.310;2022-12-26T08:10:00;4.97;;;3.50;;
14052;SDS011;7101;51.600;7.310;2022-12-26T08:12:26;6.72;;;4.88;;
14052;SDS011;7101;51.600;7.310;2022-12-26T08:14:53;7.45;;;5.82;;
14052;SDS011;7101;51.600;7.310;2022-12-26T08:17:20;7.15;;;5.97;;
14052;SDS011;7101;51.600;7.310;2022-12-26T08:19:47;7.70;;;4.32;;
14052;SDS011;7101;51.600;7.310;2022-12-26T08:22:14;5.43;;;4.30;;
14052;SDS011;7101;51.600;7.310;2022-12-26T08:24:41;5.82;;;5.22;;
14052;SDS011;7101;51.600;7.310;2022-12-26T08:27:09;7.25;;;4.30;;
14052;SDS011;7101;51.600;7.310;2022-12-26T08:29:36;4.40;;;3.85;;
14052;SDS011;7101;51.600;7.310;2022-12-26T08:32:03;5.95;;;3.42;;
14052;SDS011;7101;51.600;7.310;2022-12-26T08:34:30;3.58;;;2.83;;
14052;SDS011;7101;51.600;7.310;2022-12-26T08:36:58;3.72;;;3.00;;
14052;SDS011;7101;51.600;7.310;2022-12-26T08:39:25;3.17;;;2.50;;
14052;SDS011;7101;51.600;7.310;2022-12-26T08:41:53;9.13;;;2.72;;
14052;SDS011;7101;51.600;7.310;2022-12-26T08:44:21;4.85;;;2.78;;
14052;SDS011;7101;51.600;7.310;2022-12-26T08:46:48;6.05;;;2.60;;
14052;SDS011;7101;51.600;7.310;2022-12-26T08:49:15;5.53;;;2.78;;
14052;SDS011;7101;51.600;7.310;2022-12-26T08:51:42;3.88;;;2.20;;
14052;SDS011;7101;51.600;7.310;2022-12-26T08:54:08;3.25;;;2.05;;
14052;SDS011;7101;51.600;7.310;2022-12-26T08:56:35;3.92;;;2.33;;
14052;SDS011;7101;51.600;7.310;2022-12-26T08:59:02;2.80;;;1.90;;
14052;SDS011;7101;51.600;7.310;2022-12-26T09:01:30;3.67;;;2.10;;
14052;SDS011;7101;51.600;7.310;2022-12-26T09:03:57;3.38;;;2.17;;
14052;SDS011;7101;51.600;7.310;2022-12-26T09:06:26;2.85;;;2.17;;
14052;SDS011;7101;51.600;7.310;2022-12-26T09:08:53;4.72;;;2.20;;
14052;SDS011;7101;51.600;7.310;2022-12-26T09:11:20;3.92;;;2.03;;
14052;SDS011;7101;51.600;7.310;2022-12-26T09:13:50;4.35;;;2.45;;
14052;SDS011;7101;51.600;7.310;2022-12-26T09:16:19;4.18;;;1.95;;
14052;SDS011;7101;51.600;7.310;2022-12-26T09:18:51;5.22;;;2.20;;
14052;SDS011;7101;51.600;7.310;2022-12-26T09:21:19;3.78;;;2.20;;
14052;SDS011;7101;51.600;7.310;2022-12-26T09:23:46;3.17;;;2.28;;
14052;SDS011;7101;51.600;7.310;2022-12-26T09:26:13;3.63;;;2.10;;
14052;SDS011;7101;51.600;7.310;2022-12-26T09:28:42;2.75;;;2.15;;
14052;SDS011;7101;51.600;7.310;2022-12-26T09:31:10;3.05;;;1.75;;
14052;SDS011;7101;51.600;7.310;2022-12-26T09:33:38;4.43;;;1.90;;
14052;SDS011;7101;51.600;7.310;2022-12-26T09:36:07;2.50;;;1.80;;
14052;SDS011;7101;51.600;7.310;2022-12-26T09:38:36;3.97;;;1.65;;
14052;SDS011;7101;51.600;7.310;2022-12-26T09:41:06;125.35;;;10.32;;
14052;SDS011;7101;51.600;7.310;2022-12-26T09:43:49;7.70;;;1.80;;
14052;SDS011;7101;51.600;7.310;2022-12-26T09:46:29;6.07;;;1.98;;
14052;SDS011;7101;51.600;7.310;2022-12-26T09:49:00;5.10;;;1.50;;
14052;SDS011;7101;51.600;7.310;2022-12-26T09:51:31;4.60;;;1.60;;
14052;SDS011;7101;51.600;7.310;2022-12-26T09:54:02;2.25;;;1.33;;
14052;SDS011;7101;51.600;7.310;2022-12-26T09:56:31;3.50;;;1.70;;
14052;SDS011;7101;51.600;7.310;2022-12-26T09:59:04;4.82;;;1.25;;
14052;SDS011;7101;51.600;7.310;2022-12-26T10:01:33;5.30;;;1.42;;
14052;SDS011;7101;51.600;7.310;2022-12-26T10:04:03;2.55;;;1.30;;
14052;SDS011;7101;51.600;7.310;2022-12-26T10:06:36;3.97;;;1.20;;
14052;SDS011;7101;51.600;7.310;2022-12-26T10:09:14;2.58;;;1.17;;
14052;SDS011;7101;51.600;7.310;2022-12-26T10:12:00;6.25;;;1.50;;
14052;SDS011;7101;51.600;7.310;2022-12-26T10:14:44;4.68;;;1.45;;
14052;SDS011;7101;51.600;7.310;2022-12-26T10:17:18;4.60;;;1.42;;
14052;SDS011;7101;51.600;7.310;2022-12-26T10:19:58;1.90;;;1.20;;
14052;SDS011;7101;51.600;7.310;2022-12-26T10:25:28;2.72;;;1.35;;
14052;SDS011;7101;51.600;7.310;2022-12-26T10:28:03;5.78;;;1.40;;
14052;SDS011;7101;51.600;7.310;2022-12-26T10:30:34;2.20;;;1.30;;
14052;SDS011;7101;51.600;7.310;2022-12-26T10:33:08;4.10;;;1.40;;
14052;SDS011;7101;51.600;7.310;2022-12-26T10:35:41;2.30;;;1.48;;
14052;SDS011;7101;51.600;7.310;2022-12-26T10:38:11;4.38;;;1.58;;
14052;SDS011;7101;51.600;7.310;2022-12-26T10:40:41;3.47;;;1.40;;
14052;SDS011;7101;51.600;7.310;2022-12-26T10:43:19;4.20;;;1.65;;
14052;SDS011;7101;51.600;7.310;2022-12-26T10:45:52;3.25;;;1.20;;
14052;SDS011;7101;51.600;7.310;2022-12-26T10:48:45;3.83;;;1.70;;
14052;SDS011;7101;51.600;7.310;2022-12-26T10:51:13;2.58;;;1.42;;
14052;SDS011;7101;51.600;7.310;2022-12-26T10:53:42;3.60;;;1.05;;
14052;SDS011;7101;51.600;7.310;2022-12-26T10:56:13;3.97;;;1.33;;
14052;SDS011;7101;51.600;7.310;2022-12-26T10:58:40;3.85;;;1.27;;
14052;SDS011;7101;51.600;7.310;2022-12-26T11:01:29;3.22;;;1.30;;
14052;SDS011;7101;51.600;7.310;2022-12-26T11:04:00;2.90;;;1.58;;
14052;SDS011;7101;51.600;7.310;2022-12-26T11:06:30;3.40;;;1.35;;
14052;SDS011;7101;51.600;7.310;2022-12-26T11:09:03;3.78;;;1.70;;
14052;SDS011;7101;51.600;7.310;2022-12-26T11:11:31;5.25;;;1.75;;
14052;SDS011;7101;51.600;7.310;2022-12-26T11:14:25;2.45;;;1.23;;
14052;SDS011;7101;51.600;7.310;2022-12-26T11:17:01;4.55;;;1.90;;
14052;SDS011;7101;51.600;7.310;2022-12-26T11:19:31;3.95;;;1.70;;
14052;SDS011;7101;51.600;7.310;2022-12-26T11:25:12;3.83;;;2.00;;
14052;SDS011;7101;51.600;7.310;2022-12-26T11:27:43;5.03;;;1.70;;
14052;SDS011;7101;51.600;7.310;2022-12-26T11:30:16;3.88;;;1.75;;
14052;SDS011;7101;51.600;7.310;2022-12-26T11:33:10;5.15;;;2.15;;
14052;SDS011;7101;51.600;7.310;2022-12-26T11:35:47;5.38;;;2.10;;
14052;SDS011;7101;51.600;7.310;2022-12-26T11:38:18;4.65;;;1.80;;
14052;SDS011;7101;51.600;7.310;2022-12-26T11:41:03;4.65;;;2.08;;
14052;SDS011;7101;51.600;7.310;2022-12-26T11:43:51;4.85;;;1.60;;
14052;SDS011;7101;51.600;7.310;2022-12-26T11:46:19;3.10;;;1.60;;
14052;SDS011;7101;51.600;7.310;2022-12-26T11:48:49;4.07;;;1.50;;
14052;SDS011;7101;51.600;7.310;2022-12-26T11:51:30;4.78;;;1.60;;
14052;SDS011;7101;51.600;7.310;2022-12-26T11:54:11;2.80;;;1.42;;
14052;SDS011;7101;51.600;7.310;2022-12-26T11:56:47;4.18;;;1.60;;
14052;SDS011;7101;51.600;7.310;2022-12-26T11:59:17;4.30;;;1.33;;
14052;SDS011;7101;51.600;7.310;2022-12-26T12:01:44;3.40;;;1.60;;
14052;SDS011;7101;51.600;7.310;2022-12-26T12:04:11;3.75;;;1.55;;
14052;SDS011;7101;51.600;7.310;2022-12-26T12:06:44;4.10;;;1.85;;
14052;SDS011;7101;51.600;7.310;2022-12-26T12:09:23;3.53;;;1.40;;
14052;SDS011;7101;51.600;7.310;2022-12-26T12:12:00;2.38;;;1.50;;
14052;SDS011;7101;51.600;7.310;2022-12-26T12:14:43;4.97;;;1.30;;
14052;SDS011;7101;51.600;7.310;2022-12-26T12:17:18;3.50;;;1.20;;
14052;SDS011;7101;51.600;7.310;2022-12-26T12:19:57;3.80;;;1.20;;
14052;SDS011;7101;51.600;7.310;2022-12-26T12:22:45;4.30;;;1.23;;
14052;SDS011;7101;51.600;7.310;2022-12-26T12:25:26;6.03;;;1.60;;
14052;SDS011;7101;51.600;7.310;2022-12-26T12:28:32;4.35;;;1.58;;
14052;SDS011;7101;51.600;7.310;2022-12-26T12:31:31;4.72;;;1.75;;
14052;SDS011;7101;51.600;7.310;2022-12-26T12:34:09;4.63;;;1.50;;
14052;SDS011;7101;51.600;7.310;2022-12-26T12:36:46;4.90;;;1.60;;
14052;SDS011;7101;51.600;7.310;2022-12-26T12:39:24;2.22;;;1.40;;
14052;SDS011;7101;51.600;7.310;2022-12-26T12:42:12;3.45;;;1.30;;
14052;SDS011;7101;51.600;7.310;2022-12-26T12:45:03;2.95;;;1.00;;
14052;SDS011;7101;51.600;7.310;2022-12-26T12:47:44;3.45;;;1.30;;
14052;SDS011;7101;51.600;7.310;2022-12-26T12:50:21;7.93;;;1.63;;
14052;SDS011;7101;51.600;7.310;2022-12-26T12:52:56;5.57;;;1.63;;
14052;SDS011;7101;51.600;7.310;2022-12-26T12:58:28;8.32;;;2.72;;
14052;SDS011;7101;51.600;7.310;2022-12-26T13:01:03;4.97;;;2.53;;
14052;SDS011;7101;51.600;7.310;2022-12-26T13:03:34;4.60;;;2.33;;
14052;SDS011;7101;51.600;7.310;2022-12-26T13:06:07;6.85;;;2.50;;
14052;SDS011;7101;51.600;7.310;2022-12-26T13:08:37;7.10;;;3.20;;
14052;SDS011;7101;51.600;7.310;2022-12-26T13:11:08;5.55;;;2.95;;
14052;SDS011;7101;51.600;7.310;2022-12-26T13:13:41;6.07;;;2.83;;
14052;SDS011;7101;51.600;7.310;2022-12-26T13:16:13;6.57;;;2.75;;
14052;SDS011;7101;51.600;7.310;2022-12-26T13:18:44;5.10;;;2.88;;
14052;SDS011;7101;51.600;7.310;2022-12-26T13:21:15;6.43;;;2.70;;
14052;SDS011;7101;51.600;7.310;2022-12-26T13:23:45;11.68;;;6.63;;
14052;SDS011;7101;51.600;7.310;2022-12-26T13:26:34;8.10;;;4.55;;
14052;SDS011;7101;51.600;7.310;2022-12-26T13:29:05;5.78;;;3.15;;
14052;SDS011;7101;51.600;7.310;2022-12-26T13:31:38;6.97;;;2.70;;
14052;SDS011;7101;51.600;7.310;2022-12-26T13:34:07;7.93;;;3.30;;
14052;SDS011;7101;51.600;7.310;2022-12-26T13:36:37;10.32;;;3.38;;
14052;SDS011;7101;51.600;7.310;2022-12-26T13:39:15;8.10;;;2.80;;
14052;SDS011;7101;51.600;7.310;2022-12-26T13:42:01;7.40;;;2.67;;
14052;SDS011;7101;51.600;7.310;2022-12-26T13:45:12;11.75;;;2.90;;
14052;SDS011;7101;51.600;7.310;2022-12-26T13:54:13;8.38;;;2.50;;
14052;SDS011;7101;51.600;7.310;2022-12-26T13:56:50;10.38;;;3.45;;
14052;SDS011;7101;51.600;7.310;2022-12-26T13:59:35;9.02;;;2.42;;
14052;SDS011;7101;51.600;7.310;2022-12-26T14:02:14;12.45;;;2.97;;
14052;SDS011;7101;51.600;7.310;2022-12-26T14:04:55;10.55;;;2.65;;
14052;SDS011;7101;51.600;7.310;2022-12-26T14:07:33;10.65;;;3.08;;
14052;SDS011;7101;51.600;7.310;2022-12-26T14:10:10;11.43;;;3.20;;
14052;SDS011;7101;51.600;7.310;2022-12-26T14:12:47;11.63;;;3.10;;
14052;SDS011;7101;51.600;7.310;2022-12-26T14:15:25;9.48;;;2.47;;
14052;SDS011;7101;51.600;7.310;2022-12-26T14:18:01;13.60;;;3.10;;
14052;SDS011;7101;51.600;7.310;2022-12-26T14:20:41;6.75;;;2.38;;
14052;SDS011;7101;51.600;7.310;2022-12-26T14:23:18;9.35;;;2.60;;
14052;SDS011;7101;51.600;7.310;2022-12-26T14:25:58;11.98;;;3.05;;
14052;SDS011;7101;51.600;7.310;2022-12-26T14:28:31;6.95;;;2.58;;
14052;SDS011;7101;51.600;7.310;2022-12-26T14:31:11;8.82;;;2.22;;
14052;SDS011;7101;51.600;7.310;2022-12-26T14:33:46;7.78;;;2.20;;
14052;SDS011;7101;51.600;7.310;2022-12-26T14:36:32;7.18;;;1.88;;
14052;SDS011;7101;51.600;7.310;2022-12-26T14:39:08;7.28;;;2.10;;
14052;SDS011;7101;51.600;7.310;2022-12-26T14:42:11;6.50;;;2.38;;
14052;SDS011;7101;51.600;7.310;2022-12-26T14:45:01;8.65;;;2.60;;
14052;SDS011;7101;51.600;7.310;2022-12-26T14:47:36;12.23;;;2.33;;
14052;SDS011;7101;51.600;7.310;2022-12-26T14:53:29;8.23;;;2.60;;
14052;SDS011;7101;51.600;7.310;2022-12-26T14:55:58;10.60;;;2.40;;
14052;SDS011;7101;51.600;7.310;2022-12-26T14:58:38;6.95;;;2.22;;
14052;SDS011;7101;51.600;7.310;2022-12-26T15:04:13;9.48;;;2.38;;
14052;SDS011;7101;51.600;7.310;2022-12-26T15:07:22;8.45;;;2.40;;
14052;SDS011;7101;51.600;7.310;2022-12-26T15:10:26;9.02;;;3.75;;
14052;SDS011;7101;51.600;7.310;2022-12-26T15:13:44;10.85;;;2.38;;
14052;SDS011;7101;51.600;7.310;2022-12-26T15:19:20;10.98;;;2.35;;
14052;SDS011;7101;51.600;7.310;2022-12-26T15:25:24;6.30;;;2.05;;
14052;SDS011;7101;51.600;7.310;2022-12-26T15:28:24;8.32;;;2.30;;
14052;SDS011;7101;51.600;7.310;2022-12-26T15:34:06;9.77;;;2.20;;
14052;SDS011;7101;51.600;7.310;2022-12-26T15:36:52;7.40;;;2.00;;
14052;SDS011;7101;51.600;7.310;2022-12-26T15:39:26;6.45;;;1.95;;
14052;SDS011;7101;51.600;7.310;2022-12-26T15:42:03;9.20;;;2.15;;
14052;SDS011;7101;51.600;7.310;2022-12-26T15:44:43;9.15;;;2.28;;
14052;SDS011;7101;51.600;7.310;2022-12-26T15:47:16;9.27;;;1.85;;
14052;SDS011;7101;51.600;7.310;2022-12-26T15:49:53;8.07;;;2.00;;
14052;SDS011;7101;51.600;7.310;2022-12-26T15:52:30;7.40;;;2.53;;
14052;SDS011;7101;51.600;7.310;2022-12-26T15:55:14;8.55;;;2.10;;
14052;SDS011;7101;51.600;7.310;2022-12-26T15:57:56;8.18;;;2.20;;
14052;SDS011;7101;51.600;7.310;2022-12-26T16:00:27;10.75;;;2.30;;
14052;SDS011;7101;51.600;7.310;2022-12-26T16:03:01;6.68;;;2.20;;
14052;SDS011;7101;51.600;7.310;2022-12-26T16:05:50;6.60;;;1.88;;
14052;SDS011;7101;51.600;7.310;2022-12-26T16:11:28;11.35;;;2.95;;
14052;SDS011;7101;51.600;7.310;2022-12-26T16:13:58;7.75;;;2.50;;
14052;SDS011;7101;51.600;7.310;2022-12-26T16:16:31;6.18;;;2.58;;
14052;SDS011;7101;51.600;7.310;2022-12-26T16:19:14;14.38;;;2.90;;
14052;SDS011;7101;51.600;7.310;2022-12-26T16:21:43;7.88;;;2.35;;
14052;SDS011;7101;51.600;7.310;2022-12-26T16:24:31;11.75;;;2.80;;
14052;SDS011;7101;51.600;7.310;2022-12-26T16:26:59;11.73;;;2.92;;